createdAt,value
2018-05-02T00:00:41.884Z,7.37
2018-05-02T00:03:09.331Z,7.63
2018-05-02T00:05:44.145Z,7.03
2018-05-02T00:08:11.601Z,8.63
2018-05-02T00:10:39.065Z,8.07
2018-05-02T00:13:06.537Z,6.87
2018-05-02T00:15:34.010Z,6.90
2018-05-02T00:18:01.540Z,7.00
2018-05-02T00:20:28.940Z,6.10
2018-05-02T00:22:56.392Z,7.37
2018-05-02T00:25:23.881Z,7.20
2018-05-02T00:27:51.345Z,7.53
2018-05-02T00:30:18.800Z,8.70
2018-05-02T00:32:47.039Z,7.87
2018-05-02T00:35:14.490Z,8.63
2018-05-02T00:37:41.947Z,7.90
2018-05-02T00:40:09.396Z,7.57
2018-05-02T00:42:36.861Z,7.40
2018-05-02T00:45:04.329Z,6.33
2018-05-02T00:47:31.797Z,6.70
2018-05-02T00:49:59.269Z,7.23
2018-05-02T00:52:27.496Z,6.77
2018-05-02T00:54:54.943Z,7.50
2018-05-02T00:57:24.318Z,7.10
2018-05-02T00:59:51.776Z,6.07
2018-05-02T01:02:20.006Z,7.13
2018-05-02T01:04:55.594Z,7.53
2018-05-02T01:07:23.053Z,7.73
2018-05-02T01:09:50.508Z,8.20
2018-05-02T01:12:17.981Z,8.10
2018-05-02T01:14:45.443Z,9.47
2018-05-02T01:17:12.916Z,10.00
2018-05-02T01:19:40.382Z,7.50
2018-05-02T01:22:07.858Z,8.00
2018-05-02T01:24:35.309Z,8.93
2018-05-02T01:27:02.782Z,7.87
2018-05-02T01:29:30.240Z,6.93
2018-05-02T01:31:57.712Z,7.93
2018-05-02T01:34:25.171Z,8.33
2018-05-02T01:36:52.634Z,6.90
2018-05-02T01:39:20.854Z,7.00
2018-05-02T01:41:48.312Z,6.83
2018-05-02T01:44:15.777Z,7.10
2018-05-02T01:46:43.242Z,8.70
2018-05-02T01:49:22.564Z,8.40
2018-05-02T01:51:50.801Z,7.40
2018-05-02T01:54:18.258Z,7.60
2018-05-02T01:56:45.721Z,7.87
2018-05-02T01:59:13.179Z,7.50
2018-05-02T02:01:40.641Z,8.33
2018-05-02T02:04:08.105Z,7.20
2018-05-02T02:06:35.597Z,7.23
2018-05-02T02:09:03.060Z,8.60
2018-05-02T02:11:30.526Z,8.60
2018-05-02T02:13:57.976Z,7.37
2018-05-02T02:16:26.226Z,7.57
2018-05-02T02:18:53.668Z,8.33
2018-05-02T02:21:21.146Z,8.40
2018-05-02T02:23:48.611Z,8.97
2018-05-02T02:26:16.070Z,7.83
2018-05-02T02:28:43.525Z,7.40
2018-05-02T02:31:10.991Z,7.33
2018-05-02T02:33:39.213Z,7.73
2018-05-02T02:36:06.700Z,9.67
2018-05-02T02:38:34.161Z,9.10
2018-05-02T02:41:01.616Z,9.70
2018-05-02T02:46:25.916Z,7.50
2018-05-02T02:48:54.137Z,8.00
2018-05-02T02:51:21.602Z,7.63
2018-05-02T02:53:49.057Z,9.93
2018-05-02T02:56:16.529Z,13.93
2018-05-02T02:58:43.983Z,12.00
2018-05-02T03:01:11.470Z,11.40
2018-05-02T03:06:33.337Z,19.27
2018-05-02T03:09:00.815Z,17.73
2018-05-02T03:11:28.281Z,11.87
2018-05-02T03:13:55.754Z,9.90
2018-05-02T03:16:23.221Z,8.87
2018-05-02T03:18:50.692Z,9.47
2018-05-02T03:21:18.174Z,9.60
2018-05-02T03:23:45.630Z,8.40
2018-05-02T03:26:15.031Z,8.43
2018-05-02T03:28:42.517Z,9.37
2018-05-02T03:31:09.970Z,9.03
2018-05-02T03:33:37.448Z,9.17
2018-05-02T03:36:04.902Z,10.03
2018-05-02T03:38:32.385Z,10.50
2018-05-02T03:40:59.831Z,9.07
2018-05-02T03:43:28.070Z,8.67
2018-05-02T03:45:55.527Z,9.20
2018-05-02T03:48:22.988Z,9.30
2018-05-02T03:50:51.277Z,9.47
2018-05-02T03:53:18.749Z,8.60
2018-05-02T03:55:46.211Z,10.93
2018-05-02T03:58:13.673Z,7.90
2018-05-02T04:00:53.598Z,8.77
2018-05-02T04:03:38.303Z,9.93
2018-05-02T04:06:17.685Z,10.77
2018-05-02T04:08:45.172Z,10.73
2018-05-02T04:11:12.636Z,11.20
2018-05-02T04:13:40.101Z,9.30
2018-05-02T04:16:07.682Z,9.20
2018-05-02T04:18:35.149Z,8.90
2018-05-02T04:21:06.976Z,10.37
2018-05-02T04:23:34.423Z,8.73
2018-05-02T04:26:08.058Z,10.20
2018-05-02T04:28:35.466Z,9.60
2018-05-02T04:31:02.924Z,10.63
2018-05-02T04:33:30.393Z,10.80
2018-05-02T04:35:57.859Z,13.40
2018-05-02T04:38:26.318Z,10.73
2018-05-02T04:40:53.777Z,11.07
2018-05-02T04:43:22.008Z,11.67
2018-05-02T04:45:49.470Z,13.63
2018-05-02T04:48:17.470Z,14.73
2018-05-02T04:50:44.933Z,12.30
2018-05-02T04:53:12.393Z,11.40
2018-05-02T04:55:39.861Z,10.13
2018-05-02T04:58:07.321Z,10.20
2018-05-02T05:00:34.785Z,8.73
2018-05-02T05:03:02.256Z,9.50
2018-05-02T05:05:29.714Z,8.87
2018-05-02T05:07:57.185Z,8.97
2018-05-02T05:10:24.645Z,9.53
2018-05-02T05:12:52.881Z,8.30
2018-05-02T05:15:20.332Z,8.67
2018-05-02T05:17:47.797Z,8.30
2018-05-02T05:20:15.257Z,7.13
2018-05-02T05:22:42.722Z,7.70
2018-05-02T05:25:10.173Z,6.80
2018-05-02T05:27:38.420Z,6.23
2018-05-02T05:30:05.881Z,6.40
2018-05-02T05:32:33.324Z,6.10
2018-05-02T05:35:00.791Z,6.47
2018-05-02T05:37:28.249Z,6.10
2018-05-02T05:39:55.714Z,6.30
2018-05-02T05:42:23.928Z,6.23
2018-05-02T05:44:51.384Z,5.67
2018-05-02T05:47:18.832Z,5.47
2018-05-02T05:49:47.059Z,6.10
2018-05-02T05:52:14.513Z,5.63
2018-05-02T05:54:41.981Z,6.60
2018-05-02T05:57:09.437Z,5.30
2018-05-02T05:59:37.666Z,5.07
2018-05-02T06:02:05.121Z,5.23
2018-05-02T06:04:32.569Z,6.10
2018-05-02T06:07:00.009Z,5.80
2018-05-02T06:09:27.454Z,6.00
2018-05-02T06:11:55.237Z,5.97
2018-05-02T06:14:23.189Z,5.47
2018-05-02T06:16:50.631Z,5.07
2018-05-02T06:19:18.854Z,5.07
2018-05-02T06:21:46.305Z,4.63
2018-05-02T06:24:13.752Z,8.73
2018-05-02T06:26:41.961Z,5.57
2018-05-02T06:29:09.411Z,5.70
2018-05-02T06:31:37.627Z,6.83
2018-05-02T06:34:05.100Z,5.00
2018-05-02T06:36:33.312Z,8.23
2018-05-02T06:39:00.774Z,4.97
2018-05-02T06:41:28.225Z,7.00
2018-05-02T06:43:56.442Z,6.37
2018-05-02T06:46:23.889Z,6.87
2018-05-02T06:48:51.347Z,6.63
2018-05-02T06:51:19.545Z,4.60
2018-05-02T06:53:46.995Z,6.07
2018-05-02T06:56:15.201Z,4.80
2018-05-02T06:58:42.668Z,4.50
2018-05-02T07:01:10.871Z,5.83
2018-05-02T07:03:38.314Z,4.17
2018-05-02T07:06:06.529Z,5.07
2018-05-02T07:08:33.986Z,4.70
2018-05-02T07:11:01.434Z,4.80
2018-05-02T07:13:29.685Z,5.80
2018-05-02T07:15:57.093Z,4.70
2018-05-02T07:18:25.311Z,4.73
2018-05-02T07:20:52.752Z,4.63
2018-05-02T07:23:20.973Z,5.00
2018-05-02T07:25:48.422Z,4.17
2018-05-02T07:28:15.874Z,4.27
2018-05-02T07:30:44.083Z,4.83
2018-05-02T07:33:11.524Z,4.10
2018-05-02T07:35:39.750Z,4.97
2018-05-02T07:38:07.194Z,4.13
2018-05-02T07:40:35.421Z,4.43
2018-05-02T07:43:02.866Z,4.00
2018-05-02T07:45:30.321Z,4.20
2018-05-02T07:47:57.772Z,5.13
2018-05-02T07:50:25.246Z,4.20
2018-05-02T07:52:53.466Z,4.00
2018-05-02T07:55:20.968Z,3.90
2018-05-02T07:57:49.133Z,3.87
2018-05-02T08:00:16.589Z,3.83
2018-05-02T08:02:44.039Z,3.80
2018-05-02T08:05:12.256Z,3.83
2018-05-02T08:07:40.471Z,3.93
2018-05-02T08:10:07.927Z,4.07
2018-05-02T08:12:35.372Z,4.13
2018-05-02T08:15:02.846Z,3.50
2018-05-02T08:17:30.280Z,3.77
2018-05-02T08:19:58.505Z,3.80
2018-05-02T08:22:25.950Z,3.70
2018-05-02T08:24:53.405Z,3.50
2018-05-02T08:27:21.620Z,3.53
2018-05-02T08:29:49.085Z,3.33
2018-05-02T08:32:16.529Z,3.30
2018-05-02T08:34:44.745Z,3.80
2018-05-02T08:37:12.193Z,3.60
2018-05-02T08:39:40.416Z,3.30
2018-05-02T08:42:07.868Z,3.53
2018-05-02T08:44:35.326Z,2.97
2018-05-02T08:47:03.532Z,3.50
2018-05-02T08:49:30.994Z,5.00
2018-05-02T08:51:58.441Z,3.63
2018-05-02T08:54:26.670Z,3.07
2018-05-02T08:56:54.889Z,3.60
2018-05-02T08:59:22.353Z,3.20
2018-05-02T09:01:49.795Z,3.40
2018-05-02T09:04:17.249Z,2.77
2018-05-02T09:06:44.701Z,3.40
2018-05-02T09:09:12.930Z,3.00
2018-05-02T09:11:40.373Z,5.53
2018-05-02T09:14:07.828Z,2.60
2018-05-02T09:16:36.045Z,2.73
2018-05-02T09:19:03.504Z,3.10
2018-05-02T09:21:30.962Z,3.13
2018-05-02T09:23:58.418Z,4.60
2018-05-02T09:26:26.623Z,2.90
2018-05-02T09:28:54.083Z,2.70
2018-05-02T09:31:21.526Z,2.40
2018-05-02T09:33:48.985Z,2.57
2018-05-02T09:36:16.439Z,3.40
2018-05-02T09:38:43.889Z,2.63
2018-05-02T09:41:11.349Z,2.30
2018-05-02T09:43:38.792Z,2.80
2018-05-02T09:46:07.021Z,2.90
2018-05-02T09:48:34.479Z,2.60
2018-05-02T09:51:01.932Z,3.20
2018-05-02T09:53:29.385Z,2.30
2018-05-02T09:55:57.609Z,2.50
2018-05-02T09:58:25.060Z,2.53
2018-05-02T10:00:52.516Z,2.80
2018-05-02T10:03:20.730Z,2.73
2018-05-02T10:05:48.193Z,3.27
2018-05-02T10:08:15.641Z,3.10
2018-05-02T10:10:43.863Z,2.60
2018-05-02T10:13:11.312Z,2.43
2018-05-02T10:15:38.772Z,4.03
2018-05-02T10:18:06.225Z,2.80
2018-05-02T10:20:34.444Z,2.30
2018-05-02T10:23:01.893Z,2.77
2018-05-02T10:25:30.112Z,2.10
2018-05-02T10:27:57.568Z,2.53
2018-05-02T10:30:25.012Z,3.07
2018-05-02T10:32:53.220Z,2.50
2018-05-02T10:35:20.672Z,2.30
2018-05-02T10:37:48.889Z,1.90
2018-05-02T10:40:16.340Z,2.40
2018-05-02T10:42:43.790Z,2.90
2018-05-02T10:45:12.019Z,2.70
2018-05-02T10:47:39.460Z,2.37
2018-05-02T10:50:06.925Z,2.30
2018-05-02T10:52:35.132Z,2.90
2018-05-02T10:55:02.597Z,2.20
2018-05-02T10:57:30.058Z,2.73
2018-05-02T10:59:57.508Z,1.83
2018-05-02T11:02:25.721Z,2.03
2018-05-02T11:04:53.177Z,2.13
2018-05-02T11:07:21.393Z,1.83
2018-05-02T11:09:48.853Z,3.07
2018-05-02T11:12:16.299Z,2.53
2018-05-02T11:14:44.530Z,2.00
2018-05-02T11:17:11.989Z,2.20
2018-05-02T11:19:39.444Z,2.03
2018-05-02T11:22:06.918Z,1.93
2018-05-02T11:24:35.110Z,2.00
2018-05-02T11:27:02.566Z,1.60
2018-05-02T11:29:30.029Z,1.73
2018-05-02T11:31:58.238Z,1.90
2018-05-02T11:34:25.708Z,1.70
2018-05-02T11:36:53.165Z,11.47
2018-05-02T11:39:20.605Z,2.87
2018-05-02T11:41:48.833Z,2.20
2018-05-02T11:44:16.280Z,1.83
2018-05-02T11:46:43.728Z,2.00
2018-05-02T11:49:11.948Z,2.40
2018-05-02T11:51:39.400Z,2.40
2018-05-02T11:54:07.604Z,1.90
2018-05-02T11:56:35.060Z,2.17
2018-05-02T11:59:02.503Z,2.17
2018-05-02T12:01:29.964Z,2.10
2018-05-02T12:03:57.420Z,1.77
2018-05-02T12:06:25.164Z,2.33
2018-05-02T12:08:52.624Z,1.77
2018-05-02T12:11:20.081Z,1.50
2018-05-02T12:13:48.287Z,1.77
2018-05-02T12:16:15.749Z,1.63
2018-05-02T12:18:43.192Z,1.80
2018-05-02T12:21:11.407Z,1.30
2018-05-02T12:23:38.858Z,1.80
2018-05-02T12:26:07.097Z,1.87
2018-05-02T12:28:34.541Z,1.70
2018-05-02T12:31:02.006Z,2.23
2018-05-02T12:33:29.440Z,2.13
2018-05-02T12:35:57.672Z,1.90
2018-05-02T12:38:25.129Z,1.93
2018-05-02T12:40:52.677Z,1.63
2018-05-02T12:43:20.041Z,1.93
2018-05-02T12:45:48.270Z,2.17
2018-05-02T12:48:15.713Z,2.20
2018-05-02T12:50:43.932Z,2.10
2018-05-02T12:53:11.389Z,3.40
2018-05-02T12:55:38.846Z,3.80
2018-05-02T12:58:06.292Z,1.93
2018-05-02T13:00:34.507Z,2.13
2018-05-02T13:03:01.962Z,1.63
2018-05-02T13:05:30.187Z,1.80
2018-05-02T13:07:57.632Z,1.73
2018-05-02T13:10:25.089Z,1.93
2018-05-02T13:12:53.305Z,1.87
2018-05-02T13:15:21.539Z,2.13
2018-05-02T13:17:48.989Z,1.30
2018-05-02T13:20:16.444Z,1.40
2018-05-02T13:22:43.901Z,1.50
2018-05-02T13:25:11.357Z,1.93
2018-05-02T13:27:38.808Z,1.47
2018-05-02T13:30:07.042Z,1.77
2018-05-02T13:32:34.484Z,1.87
2018-05-02T13:35:01.940Z,1.77
2018-05-02T13:37:30.160Z,1.63
2018-05-02T13:39:57.609Z,1.70
2018-05-02T13:42:25.077Z,1.67
2018-05-02T13:44:52.524Z,2.20
2018-05-02T13:47:20.749Z,1.90
2018-05-02T13:49:48.187Z,1.70
2018-05-02T13:52:16.412Z,1.83
2018-05-02T13:54:43.861Z,1.67
2018-05-02T13:57:11.321Z,1.60
2018-05-02T13:59:39.533Z,1.20
2018-05-02T14:02:06.993Z,1.50
2018-05-02T14:04:35.209Z,1.60
2018-05-02T14:07:02.670Z,1.77
2018-05-02T14:09:30.115Z,1.47
2018-05-02T14:11:57.578Z,1.40
2018-05-02T14:14:25.019Z,1.33
2018-05-02T14:16:53.253Z,1.30
2018-05-02T14:19:20.701Z,1.10
2018-05-02T14:21:48.161Z,1.30
2018-05-02T14:24:15.613Z,1.10
2018-05-02T14:26:43.073Z,1.10
2018-05-02T14:29:10.524Z,1.43
2018-05-02T14:31:37.989Z,1.30
2018-05-02T14:34:05.450Z,1.30
2018-05-02T14:36:32.969Z,1.20
2018-05-02T14:39:00.365Z,1.07
2018-05-02T14:41:27.826Z,1.27
2018-05-02T14:43:55.272Z,1.40
2018-05-02T14:46:23.506Z,1.30
2018-05-02T14:48:50.957Z,1.17
2018-05-02T14:51:18.407Z,1.23
2018-05-02T14:53:46.620Z,1.27
2018-05-02T14:56:14.069Z,1.33
2018-05-02T14:58:42.282Z,1.60
2018-05-02T15:01:09.740Z,1.80
2018-05-02T15:03:37.185Z,1.50
2018-05-02T15:06:05.410Z,1.20
2018-05-02T15:08:32.857Z,1.60
2018-05-02T15:11:00.321Z,1.40
2018-05-02T15:13:28.533Z,1.23
2018-05-02T15:15:55.994Z,1.70
2018-05-02T15:18:23.439Z,1.30
2018-05-02T15:20:51.665Z,1.70
2018-05-02T15:23:19.133Z,1.63
2018-05-02T15:25:46.593Z,1.50
2018-05-02T15:28:14.046Z,1.50
2018-05-02T15:30:42.257Z,1.37
2018-05-02T15:33:09.712Z,1.40
2018-05-02T15:35:37.161Z,1.80
2018-05-02T15:38:05.082Z,1.30
2018-05-02T15:40:32.535Z,1.70
2018-05-02T15:43:00.762Z,1.60
2018-05-02T15:45:28.213Z,1.30
2018-05-02T15:48:00.048Z,1.40
2018-05-02T15:50:27.505Z,1.30
2018-05-02T15:52:55.926Z,1.30
2018-05-02T15:55:24.149Z,1.40
2018-05-02T15:57:51.621Z,1.50
2018-05-02T16:00:19.077Z,1.43
2018-05-02T16:02:46.532Z,1.40
2018-05-02T16:05:13.988Z,1.40
2018-05-02T16:07:42.208Z,1.50
2018-05-02T16:10:09.661Z,1.50
2018-05-02T16:12:37.121Z,2.43
2018-05-02T16:15:04.577Z,1.70
2018-05-02T16:17:32.804Z,1.30
2018-05-02T16:20:00.253Z,1.60
2018-05-02T16:22:27.704Z,1.60
2018-05-02T16:24:55.912Z,1.50
2018-05-02T16:27:23.430Z,1.80
2018-05-02T16:29:50.820Z,1.50
2018-05-02T16:32:18.267Z,1.67
2018-05-02T16:34:45.723Z,1.70
2018-05-02T16:42:59.625Z,1.67
2018-05-02T16:45:32.793Z,1.80
2018-05-02T16:48:01.030Z,1.47
2018-05-02T16:50:28.474Z,1.80
2018-05-02T16:52:55.942Z,2.50
2018-05-02T16:55:23.395Z,2.43
2018-05-02T16:57:57.529Z,2.70
2018-05-02T17:00:25.745Z,3.00
2018-05-02T17:02:54.210Z,2.53
2018-05-02T17:05:22.431Z,3.30
2018-05-02T17:07:49.896Z,3.33
2018-05-02T17:10:17.344Z,2.73
2018-05-02T17:12:44.810Z,2.90
2018-05-02T17:15:12.260Z,2.70
2018-05-02T17:17:40.494Z,2.83
2018-05-02T17:20:07.949Z,3.00
2018-05-02T17:22:35.415Z,3.33
2018-05-02T17:25:02.864Z,3.67
2018-05-02T17:27:32.993Z,4.30
2018-05-02T17:30:01.219Z,3.53
2018-05-02T17:32:29.462Z,3.57
2018-05-02T17:34:57.683Z,4.00
2018-05-02T17:37:37.874Z,4.17
2018-05-02T17:40:05.330Z,3.93
2018-05-02T17:42:32.788Z,4.50
2018-05-02T17:45:00.246Z,5.37
2018-05-02T17:47:27.692Z,4.80
2018-05-02T17:49:55.159Z,4.60
2018-05-02T17:52:22.605Z,4.60
2018-05-02T17:54:50.066Z,4.63
2018-05-02T17:57:17.518Z,4.40
2018-05-02T17:59:44.977Z,5.07
2018-05-02T18:02:12.431Z,4.10
2018-05-02T18:04:40.707Z,4.57
2018-05-02T18:07:08.947Z,4.80
2018-05-02T18:09:36.409Z,3.90
2018-05-02T18:12:03.876Z,3.80
2018-05-02T18:14:31.334Z,3.00
2018-05-02T18:16:58.788Z,4.97
2018-05-02T18:19:26.254Z,4.50
2018-05-02T18:21:54.473Z,4.90
2018-05-02T18:24:22.690Z,4.40
2018-05-02T18:26:50.158Z,3.83
2018-05-02T18:29:18.583Z,3.47
2018-05-02T18:31:46.813Z,3.37
2018-05-02T18:34:14.533Z,3.80
2018-05-02T18:36:41.984Z,3.70
2018-05-02T18:39:09.442Z,4.80
2018-05-02T18:41:36.907Z,4.43
2018-05-02T18:44:05.337Z,3.60
2018-05-02T18:46:33.571Z,3.43
2018-05-02T18:49:01.016Z,4.17
2018-05-02T18:51:29.393Z,4.13
2018-05-02T18:53:57.601Z,4.40
2018-05-02T18:56:25.068Z,4.00
2018-05-02T18:58:52.517Z,4.00
2018-05-02T19:01:25.017Z,4.20
2018-05-02T19:03:52.548Z,4.10
2018-05-02T19:06:19.928Z,4.60
2018-05-02T19:08:47.382Z,4.60
2018-05-02T19:11:14.836Z,4.20
2018-05-02T19:13:48.017Z,4.40
2018-05-02T19:16:15.466Z,4.20
2018-05-02T19:18:49.449Z,4.47
2018-05-02T19:21:16.905Z,4.37
2018-05-02T19:23:45.329Z,4.80
2018-05-02T19:26:18.524Z,5.53
2018-05-02T19:28:45.973Z,5.47
2018-05-02T19:31:19.185Z,5.17
2018-05-02T19:33:52.617Z,5.20
2018-05-02T19:36:20.074Z,5.00
2018-05-02T19:38:47.531Z,5.00
2018-05-02T19:41:20.637Z,5.07
2018-05-02T19:43:53.809Z,4.10
2018-05-02T19:46:21.266Z,4.63
2018-05-02T19:48:53.655Z,5.60
2018-05-02T19:51:26.889Z,5.20
2018-05-02T19:53:54.367Z,5.07
2018-05-02T19:56:21.821Z,4.47
2018-05-02T19:58:49.272Z,4.80
2018-05-02T20:01:22.341Z,4.90
2018-05-02T20:03:50.558Z,5.10
2018-05-02T20:06:18.043Z,4.67
2018-05-02T20:08:51.237Z,5.10
2018-05-02T20:11:24.457Z,5.20
2018-05-02T20:13:57.639Z,4.60
2018-05-02T20:16:25.093Z,4.63
2018-05-02T20:18:53.310Z,5.57
2018-05-02T20:21:20.765Z,5.30
2018-05-02T20:23:48.209Z,6.33
2018-05-02T20:26:16.442Z,5.10
2018-05-02T20:28:43.893Z,4.40
2018-05-02T20:31:12.186Z,4.37
2018-05-02T20:33:39.635Z,4.53
2018-05-02T20:36:10.895Z,4.73
2018-05-02T20:38:39.100Z,5.40
2018-05-02T20:41:06.574Z,5.40
2018-05-02T20:43:34.026Z,6.10
2018-05-02T20:46:01.490Z,5.50
2018-05-02T20:48:29.713Z,5.37
2018-05-02T20:50:57.170Z,5.73
2018-05-02T20:53:24.622Z,5.50
2018-05-02T20:55:52.084Z,5.90
2018-05-02T20:58:20.306Z,6.60
2018-05-02T21:00:47.756Z,8.17
2018-05-02T21:03:15.196Z,7.67
2018-05-02T21:05:43.426Z,8.30
2018-05-02T21:08:11.650Z,10.43
2018-05-02T21:10:39.104Z,5.70
2018-05-02T21:13:06.557Z,5.80
2018-05-02T21:15:34.017Z,6.20
2018-05-02T21:18:01.478Z,6.10
2018-05-02T21:20:28.974Z,6.03
2018-05-02T21:22:56.418Z,8.47
2018-05-02T21:25:23.888Z,11.20
2018-05-02T21:27:51.341Z,9.10
2018-05-02T21:30:19.573Z,7.93
2018-05-02T21:32:47.732Z,6.80
2018-05-02T21:35:15.180Z,7.50
2018-05-02T21:37:43.399Z,5.07
2018-05-02T21:40:10.852Z,4.00
2018-05-02T21:42:38.305Z,4.50
2018-05-02T21:45:06.537Z,10.27
2018-05-02T21:47:34.000Z,9.97
2018-05-02T21:50:01.465Z,7.70
2018-05-02T21:52:28.916Z,7.80
2018-05-02T21:55:00.061Z,7.30
2018-05-02T21:57:28.278Z,4.67
2018-05-02T21:59:55.738Z,4.10
2018-05-02T22:02:23.189Z,3.13
2018-05-02T22:04:50.653Z,6.17
2018-05-02T22:07:20.773Z,6.80
2018-05-02T22:09:50.017Z,6.50
2018-05-02T22:12:17.465Z,6.07
2018-05-02T22:14:45.681Z,5.93
2018-05-02T22:17:13.141Z,4.10
2018-05-02T22:19:40.593Z,5.10
2018-05-02T22:22:08.818Z,6.07
2018-05-02T22:24:36.264Z,5.00
2018-05-02T22:27:03.713Z,5.33
2018-05-02T22:29:31.930Z,5.63
2018-05-02T22:31:59.382Z,4.73
2018-05-02T22:34:26.820Z,4.60
2018-05-02T22:36:55.250Z,4.50
2018-05-02T22:39:22.698Z,3.83
2018-05-02T22:41:50.926Z,3.50
2018-05-02T22:44:18.382Z,4.43
2018-05-02T22:46:45.833Z,4.10
2018-05-02T22:49:13.283Z,3.93
2018-05-02T22:51:40.745Z,4.27
2018-05-02T22:54:08.193Z,3.40
2018-05-02T22:56:35.653Z,3.30
2018-05-02T22:59:03.092Z,3.40
2018-05-02T23:01:31.461Z,5.57
2018-05-02T23:03:59.673Z,4.57
2018-05-02T23:06:27.133Z,5.03
2018-05-02T23:08:54.590Z,4.20
2018-05-02T23:11:22.814Z,3.90
2018-05-02T23:13:50.299Z,4.77
2018-05-02T23:16:17.734Z,4.47
2018-05-02T23:18:45.185Z,3.67
2018-05-02T23:21:13.414Z,3.90
2018-05-02T23:23:44.938Z,4.27
2018-05-02T23:26:13.174Z,4.73
2018-05-02T23:28:40.616Z,4.40
2018-05-02T23:31:08.081Z,4.00
2018-05-02T23:33:35.530Z,3.80
2018-05-02T23:36:03.749Z,3.90
2018-05-02T23:38:31.206Z,5.10
2018-05-02T23:40:58.676Z,3.73
2018-05-02T23:43:26.126Z,3.80
2018-05-02T23:45:54.353Z,3.13
2018-05-02T23:48:21.810Z,3.90
2018-05-02T23:50:49.265Z,3.50
2018-05-02T23:53:18.471Z,3.57
2018-05-02T23:55:46.700Z,3.80
2018-05-02T23:58:16.062Z,4.30
